createdAt,value
2024-03-16T00:00:09.873Z,96.10
2024-03-16T00:02:37.862Z,96.00
2024-03-16T00:05:05.633Z,96.30
2024-03-16T00:07:33.056Z,96.10
2024-03-16T00:10:00.535Z,96.30
2024-03-16T00:12:28.145Z,96.30
2024-03-16T00:14:56.933Z,96.50
2024-03-16T00:17:24.501Z,96.60
2024-03-16T00:19:51.930Z,96.80
2024-03-16T00:22:19.849Z,96.90
2024-03-16T00:24:47.390Z,96.90
2024-03-16T00:27:14.899Z,97.80
2024-03-16T00:29:42.290Z,97.10
2024-03-16T00:32:10.065Z,97.20
2024-03-16T00:34:37.480Z,97.50
2024-03-16T00:37:05.926Z,97.50
2024-03-16T00:39:33.741Z,98.00
2024-03-16T00:42:02.000Z,97.70
2024-03-16T00:44:29.391Z,98.30
2024-03-16T00:46:56.727Z,98.50
2024-03-16T00:49:24.300Z,98.80
2024-03-16T00:51:51.711Z,98.90
2024-03-16T00:54:19.330Z,99.20
2024-03-16T00:56:47.519Z,99.40
2024-03-16T00:59:15.268Z,99.60
2024-03-16T01:01:42.892Z,99.90
2024-03-16T01:04:10.582Z,99.90
2024-03-16T01:06:38.164Z,99.90
2024-03-16T01:09:05.586Z,99.90
2024-03-16T01:11:33.502Z,99.90
2024-03-16T01:14:01.013Z,99.90
2024-03-16T01:16:28.389Z,99.90
2024-03-16T01:18:55.822Z,99.90
2024-03-16T01:21:23.334Z,99.90
2024-03-16T01:23:50.680Z,99.90
2024-03-16T01:26:18.058Z,99.90
2024-03-16T01:28:46.720Z,99.90
2024-03-16T01:31:15.124Z,99.90
2024-03-16T01:33:42.834Z,99.90
2024-03-16T01:36:10.546Z,99.90
2024-03-16T01:38:37.981Z,99.90
2024-03-16T01:41:06.253Z,99.90
2024-03-16T01:43:33.715Z,99.90
2024-03-16T01:46:01.340Z,99.90
2024-03-16T01:48:28.986Z,99.90
2024-03-16T01:50:56.410Z,99.90
2024-03-16T01:53:23.765Z,99.90
2024-03-16T01:55:51.977Z,99.90
2024-03-16T01:58:19.382Z,99.90
2024-03-16T02:00:48.954Z,99.90
2024-03-16T02:03:16.738Z,99.80
2024-03-16T02:05:44.163Z,99.70
2024-03-16T02:08:12.815Z,99.70
2024-03-16T02:10:40.592Z,99.60
2024-03-16T02:13:08.380Z,99.30
2024-03-16T02:15:36.009Z,99.30
2024-03-16T02:18:03.972Z,99.80
2024-03-16T02:20:32.948Z,99.30
2024-03-16T02:23:00.979Z,99.30
2024-03-16T02:25:28.870Z,99.30
2024-03-16T02:27:57.428Z,99.90
2024-03-16T02:30:25.459Z,99.90
2024-03-16T02:32:52.920Z,99.90
2024-03-16T02:35:20.340Z,99.90
2024-03-16T02:37:47.714Z,99.90
2024-03-16T02:40:15.225Z,99.90
2024-03-16T02:42:43.792Z,99.90
2024-03-16T02:45:12.058Z,99.90
2024-03-16T02:47:39.840Z,99.90
2024-03-16T02:50:11.252Z,99.90
2024-03-16T02:52:38.780Z,99.90
2024-03-16T02:55:06.781Z,99.90
2024-03-16T02:57:35.159Z,99.90
2024-03-16T03:00:05.590Z,99.90
2024-03-16T03:02:33.007Z,99.90
2024-03-16T03:05:00.298Z,99.90
2024-03-16T03:07:28.452Z,99.90
2024-03-16T03:09:55.862Z,99.90
2024-03-16T03:12:25.636Z,99.90
2024-03-16T03:14:53.008Z,99.90
2024-03-16T03:17:20.408Z,99.90
2024-03-16T03:19:47.813Z,99.90
2024-03-16T03:22:15.203Z,99.90
2024-03-16T03:24:42.611Z,99.90
2024-03-16T03:27:10.219Z,99.90
2024-03-16T03:29:37.613Z,99.90
2024-03-16T03:32:05.221Z,99.90
2024-03-16T03:34:33.074Z,99.90
2024-03-16T03:37:02.587Z,99.90
2024-03-16T03:39:29.976Z,99.90
2024-03-16T03:41:57.419Z,99.90
2024-03-16T03:44:37.047Z,99.90
2024-03-16T03:47:04.675Z,99.90
2024-03-16T03:49:36.715Z,99.90
2024-03-16T03:52:05.894Z,99.90
2024-03-16T03:54:35.563Z,99.90
2024-03-16T03:57:03.813Z,99.90
2024-03-16T03:59:31.149Z,99.90
2024-03-16T04:01:58.548Z,99.90
2024-03-16T04:04:26.060Z,99.90
2024-03-16T04:06:53.449Z,99.90
2024-03-16T04:09:20.774Z,99.90
2024-03-16T04:11:48.153Z,99.90
2024-03-16T04:14:17.002Z,99.90
2024-03-16T04:16:44.389Z,99.90
2024-03-16T04:19:11.938Z,99.90
2024-03-16T04:21:39.358Z,99.90
2024-03-16T04:24:07.162Z,99.90
2024-03-16T04:26:35.072Z,99.90
2024-03-16T04:29:02.381Z,99.90
2024-03-16T04:31:29.726Z,99.90
2024-03-16T04:33:57.145Z,99.90
2024-03-16T04:36:24.569Z,99.90
2024-03-16T04:38:51.937Z,99.90
2024-03-16T04:41:20.655Z,99.90
2024-03-16T04:43:48.587Z,99.90
2024-03-16T04:46:16.885Z,99.90
2024-03-16T04:48:44.261Z,99.90
2024-03-16T04:51:11.623Z,99.90
2024-03-16T04:53:38.948Z,99.90
2024-03-16T04:56:06.378Z,99.90
2024-03-16T04:58:33.704Z,99.90
2024-03-16T05:01:02.128Z,99.90
2024-03-16T05:03:29.821Z,99.90
2024-03-16T05:05:57.569Z,99.90
2024-03-16T05:08:26.764Z,99.90
2024-03-16T05:10:54.226Z,99.90
2024-03-16T05:13:21.732Z,99.90
2024-03-16T05:15:49.690Z,99.90
2024-03-16T05:18:17.285Z,99.90
2024-03-16T05:20:45.643Z,99.90
2024-03-16T05:23:13.441Z,99.90
2024-03-16T05:25:40.862Z,99.90
2024-03-16T05:28:08.390Z,99.90
2024-03-16T05:30:35.872Z,99.90
2024-03-16T05:33:03.529Z,99.90
2024-03-16T05:35:31.150Z,99.90
2024-03-16T05:37:58.470Z,99.90
2024-03-16T05:40:25.977Z,99.90
2024-03-16T05:42:53.531Z,99.90
2024-03-16T05:45:21.018Z,99.90
2024-03-16T05:47:48.532Z,99.90
2024-03-16T05:50:15.916Z,99.90
2024-03-16T05:52:43.299Z,99.90
2024-03-16T05:55:10.737Z,99.90
2024-03-16T05:57:38.263Z,99.90
2024-03-16T06:00:14.633Z,99.90
2024-03-16T06:02:42.215Z,99.90
2024-03-16T06:05:10.826Z,99.90
2024-03-16T06:07:38.417Z,99.90
2024-03-16T06:10:10.528Z,99.90
2024-03-16T06:12:38.730Z,99.90
2024-03-16T06:15:09.950Z,99.90
2024-03-16T06:17:37.419Z,99.90
2024-03-16T06:20:06.687Z,99.90
2024-03-16T06:22:34.164Z,99.90
2024-03-16T06:25:01.673Z,99.90
2024-03-16T06:27:29.301Z,99.90
2024-03-16T06:29:58.644Z,99.90
2024-03-16T06:32:26.128Z,99.90
2024-03-16T06:34:54.631Z,99.90
2024-03-16T06:37:22.082Z,99.90
2024-03-16T06:39:49.544Z,99.90
2024-03-16T06:42:17.137Z,99.90
2024-03-16T06:44:45.434Z,99.90
2024-03-16T06:47:13.088Z,99.90
2024-03-16T06:49:41.716Z,99.90
2024-03-16T06:52:09.238Z,99.90
2024-03-16T06:54:36.903Z,99.90
2024-03-16T06:57:04.982Z,99.90
2024-03-16T06:59:32.386Z,99.90
2024-03-16T07:02:00.159Z,99.90
2024-03-16T07:04:27.674Z,99.90
2024-03-16T07:06:55.116Z,99.90
2024-03-16T07:09:22.555Z,99.90
2024-03-16T07:11:50.042Z,99.90
2024-03-16T07:14:18.215Z,99.90
2024-03-16T07:16:45.597Z,99.90
2024-03-16T07:19:13.261Z,99.90
2024-03-16T07:21:40.827Z,99.90
2024-03-16T07:24:11.033Z,99.90
2024-03-16T07:26:38.617Z,99.90
2024-03-16T07:29:06.005Z,99.90
2024-03-16T07:31:33.401Z,99.90
2024-03-16T07:34:02.914Z,99.90
2024-03-16T07:36:31.775Z,99.90
2024-03-16T07:38:59.236Z,99.90
2024-03-16T07:41:26.659Z,99.90
2024-03-16T07:43:54.024Z,99.90
2024-03-16T07:46:21.774Z,99.90
2024-03-16T07:48:50.358Z,99.90
2024-03-16T07:51:18.268Z,99.90
2024-03-16T07:53:45.744Z,99.90
2024-03-16T07:56:13.293Z,99.90
2024-03-16T07:58:40.712Z,99.90
2024-03-16T08:01:10.790Z,99.90
2024-03-16T08:03:38.339Z,99.90
2024-03-16T08:06:08.712Z,99.90
2024-03-16T08:08:36.415Z,99.90
2024-03-16T08:11:05.444Z,99.90
2024-03-16T08:13:32.920Z,99.90
2024-03-16T08:16:00.845Z,99.90
2024-03-16T08:18:28.353Z,99.90
2024-03-16T08:20:59.124Z,99.90
2024-03-16T08:23:26.702Z,99.90
2024-03-16T08:25:54.456Z,99.90
2024-03-16T08:28:22.281Z,99.90
2024-03-16T08:30:49.863Z,99.90
2024-03-16T08:33:17.393Z,99.90
2024-03-16T08:35:45.949Z,99.90
2024-03-16T08:38:13.357Z,99.90
2024-03-16T08:40:40.783Z,99.90
2024-03-16T08:43:09.092Z,99.90
2024-03-16T08:45:36.731Z,99.90
2024-03-16T08:48:04.689Z,99.90
2024-03-16T08:50:32.126Z,99.90
2024-03-16T08:52:59.542Z,99.90
2024-03-16T08:55:27.287Z,99.90
2024-03-16T08:57:54.764Z,99.90
2024-03-16T09:00:22.509Z,99.90
2024-03-16T09:02:51.703Z,99.90
2024-03-16T09:05:19.728Z,99.90
2024-03-16T09:07:47.109Z,99.20
2024-03-16T09:10:14.812Z,99.20
2024-03-16T09:12:42.349Z,98.50
2024-03-16T09:15:10.140Z,97.90
2024-03-16T09:17:37.993Z,98.00
2024-03-16T09:20:09.571Z,97.80
2024-03-16T09:22:37.957Z,97.70
2024-03-16T09:25:07.219Z,98.50
2024-03-16T09:27:38.023Z,98.20
2024-03-16T09:30:06.957Z,97.70
2024-03-16T09:32:35.576Z,97.70
2024-03-16T09:35:05.494Z,98.00
2024-03-16T09:37:39.628Z,97.10
2024-03-16T09:40:11.882Z,97.10
2024-03-16T09:42:43.166Z,96.20
